createdAt,value
2022-11-24T00:01:31.080Z,100.00
2022-11-24T00:04:04.654Z,100.00
2022-11-24T00:06:33.995Z,100.00
2022-11-24T00:09:03.336Z,100.00
2022-11-24T00:11:39.029Z,100.00
2022-11-24T00:14:09.582Z,100.00
2022-11-24T00:16:38.759Z,100.00
2022-11-24T00:19:11.394Z,100.00
2022-11-24T00:21:40.294Z,100.00
2022-11-24T00:24:08.017Z,100.00
2022-11-24T00:26:37.478Z,100.00
2022-11-24T00:29:07.572Z,100.00
2022-11-24T00:31:38.362Z,100.00
2022-11-24T00:34:12.805Z,100.00
2022-11-24T00:36:42.370Z,100.00
2022-11-24T00:39:13.522Z,100.00
2022-11-24T00:41:43.900Z,100.00
2022-11-24T00:44:11.578Z,100.00
2022-11-24T00:46:39.527Z,100.00
2022-11-24T00:49:10.078Z,100.00
2022-11-24T00:51:37.640Z,100.00
2022-11-24T00:54:06.331Z,100.00
2022-11-24T00:56:36.150Z,100.00
2022-11-24T00:59:05.423Z,100.00
2022-11-24T01:01:35.254Z,100.00
2022-11-24T01:04:05.402Z,100.00
2022-11-24T01:06:35.781Z,100.00
2022-11-24T01:09:04.741Z,100.00
2022-11-24T01:11:50.752Z,100.00
2022-11-24T01:14:18.928Z,100.00
2022-11-24T01:16:46.828Z,100.00
2022-11-24T01:19:14.359Z,100.00
2022-11-24T01:21:41.965Z,100.00
2022-11-24T01:24:13.176Z,100.00
2022-11-24T01:26:42.013Z,100.00
2022-11-24T01:29:11.818Z,100.00
2022-11-24T01:31:39.419Z,100.00
2022-11-24T01:34:07.293Z,100.00
2022-11-24T01:36:35.345Z,100.00
2022-11-24T01:39:05.277Z,100.00
2022-11-24T01:41:34.683Z,100.00
2022-11-24T01:44:25.125Z,100.00
2022-11-24T01:47:15.860Z,100.00
2022-11-24T01:49:52.788Z,100.00
2022-11-24T01:52:23.044Z,100.00
2022-11-24T01:54:56.115Z,100.00
2022-11-24T01:57:44.623Z,100.00
2022-11-24T02:00:15.393Z,100.00
2022-11-24T02:02:45.473Z,100.00
2022-11-24T02:05:20.908Z,100.00
2022-11-24T02:07:51.992Z,100.00
2022-11-24T02:10:21.117Z,100.00
2022-11-24T02:12:52.468Z,100.00
2022-11-24T02:15:21.158Z,100.00
2022-11-24T02:17:51.620Z,100.00
2022-11-24T02:20:19.628Z,100.00
2022-11-24T02:23:08.810Z,100.00
2022-11-24T02:26:12.523Z,100.00
2022-11-24T02:28:40.166Z,100.00
2022-11-24T02:31:10.409Z,100.00
2022-11-24T02:33:40.045Z,100.00
2022-11-24T02:36:10.343Z,100.00
2022-11-24T02:38:38.001Z,100.00
2022-11-24T02:41:11.434Z,100.00
2022-11-24T02:43:45.281Z,100.00
2022-11-24T02:46:12.997Z,100.00
2022-11-24T02:48:40.528Z,100.00
2022-11-24T02:51:08.059Z,100.00
2022-11-24T02:53:35.867Z,100.00
2022-11-24T02:56:03.915Z,100.00
2022-11-24T02:58:31.482Z,100.00
2022-11-24T03:00:59.876Z,100.00
2022-11-24T03:03:28.539Z,100.00
2022-11-24T03:05:56.106Z,100.00
2022-11-24T03:08:23.867Z,100.00
2022-11-24T03:10:51.506Z,100.00
2022-11-24T03:13:21.173Z,100.00
2022-11-24T03:15:48.782Z,100.00
2022-11-24T03:18:16.462Z,100.00
2022-11-24T03:20:44.210Z,100.00
2022-11-24T03:23:11.903Z,100.00
2022-11-24T03:25:39.751Z,100.00
2022-11-24T03:28:12.334Z,100.00
2022-11-24T03:30:40.997Z,100.00
2022-11-24T03:33:08.544Z,100.00
2022-11-24T03:35:36.072Z,100.00
2022-11-24T03:38:04.980Z,100.00
2022-11-24T03:40:32.517Z,100.00
2022-11-24T03:43:00.064Z,100.00
2022-11-24T03:48:17.387Z,100.00
2022-11-24T03:50:53.073Z,100.00
2022-11-24T03:53:21.949Z,100.00
2022-11-24T03:55:49.517Z,100.00
2022-11-24T03:58:19.969Z,100.00
2022-11-24T04:00:50.254Z,100.00
2022-11-24T04:03:19.162Z,100.00
2022-11-24T04:05:47.802Z,100.00
2022-11-24T04:08:17.996Z,100.00
2022-11-24T04:10:52.048Z,100.00
2022-11-24T04:13:21.147Z,100.00
2022-11-24T04:15:51.167Z,100.00
2022-11-24T04:18:19.088Z,100.00
2022-11-24T04:20:46.806Z,100.00
2022-11-24T04:23:14.331Z,100.00
2022-11-24T04:25:43.673Z,100.00
2022-11-24T04:28:13.919Z,100.00
2022-11-24T04:30:44.693Z,100.00
2022-11-24T04:33:13.338Z,100.00
2022-11-24T04:35:40.934Z,100.00
2022-11-24T04:38:08.473Z,100.00
2022-11-24T04:40:36.050Z,100.00
2022-11-24T04:43:03.941Z,100.00
2022-11-24T04:45:31.450Z,100.00
2022-11-24T04:48:00.310Z,100.00
2022-11-24T04:50:30.277Z,100.00
2022-11-24T04:52:58.170Z,100.00
2022-11-24T04:55:29.455Z,100.00
2022-11-24T04:57:57.090Z,100.00
2022-11-24T05:00:24.620Z,100.00
2022-11-24T05:02:52.158Z,100.00
2022-11-24T05:05:20.438Z,100.00
2022-11-24T05:07:49.045Z,100.00
2022-11-24T05:10:34.229Z,100.00
2022-11-24T05:13:02.795Z,100.00
2022-11-24T05:15:30.590Z,100.00
2022-11-24T05:17:58.663Z,100.00
2022-11-24T05:20:29.567Z,100.00
2022-11-24T05:23:04.973Z,100.00
2022-11-24T05:25:33.580Z,100.00
2022-11-24T05:28:02.972Z,100.00
2022-11-24T05:30:31.664Z,100.00
2022-11-24T05:32:59.815Z,100.00
2022-11-24T05:35:27.444Z,100.00
2022-11-24T05:37:55.398Z,100.00
2022-11-24T05:40:22.952Z,100.00
2022-11-24T05:42:50.464Z,100.00
2022-11-24T05:45:20.758Z,100.00
2022-11-24T05:47:49.800Z,100.00
2022-11-24T05:50:19.289Z,100.00
2022-11-24T05:52:49.174Z,100.00
2022-11-24T05:55:21.454Z,100.00
2022-11-24T05:57:49.034Z,100.00
2022-11-24T06:00:18.207Z,100.00
2022-11-24T06:02:45.861Z,100.00
2022-11-24T06:05:15.961Z,100.00
2022-11-24T06:07:43.593Z,99.71
2022-11-24T06:10:13.690Z,99.58
2022-11-24T06:12:41.206Z,98.22
2022-11-24T06:15:09.426Z,97.86
2022-11-24T06:17:36.954Z,95.92
2022-11-24T06:20:07.578Z,96.44
2022-11-24T06:22:35.305Z,95.27
2022-11-24T06:25:05.833Z,95.79
2022-11-24T06:27:35.894Z,95.82
2022-11-24T06:30:03.965Z,95.48
2022-11-24T06:32:31.634Z,95.18
2022-11-24T06:34:59.786Z,93.91
2022-11-24T06:37:27.729Z,93.64
2022-11-24T06:39:55.766Z,94.09
2022-11-24T06:42:23.318Z,93.05
2022-11-24T06:44:53.285Z,91.71
2022-11-24T06:47:23.340Z,91.22
2022-11-24T06:49:50.844Z,91.92
2022-11-24T06:52:18.519Z,91.14
2022-11-24T06:54:46.138Z,90.64
2022-11-24T06:57:16.102Z,91.21
2022-11-24T06:59:46.001Z,91.19
2022-11-24T07:02:13.534Z,90.13
2022-11-24T07:04:41.053Z,89.02
2022-11-24T07:07:08.818Z,88.88
2022-11-24T07:09:36.416Z,88.34
2022-11-24T07:12:04.877Z,86.98
2022-11-24T07:14:33.445Z,87.00
2022-11-24T07:17:04.822Z,87.47
2022-11-24T07:19:32.497Z,86.26
2022-11-24T07:22:00.481Z,86.61
2022-11-24T07:24:28.267Z,84.02
2022-11-24T07:26:55.838Z,84.07
2022-11-24T07:29:23.494Z,84.19
2022-11-24T07:31:51.082Z,83.93
2022-11-24T07:34:19.182Z,80.93
2022-11-24T07:36:46.815Z,81.77
2022-11-24T07:39:14.330Z,82.85
2022-11-24T07:41:41.878Z,82.11
2022-11-24T07:44:09.406Z,82.71
2022-11-24T07:46:37.009Z,82.46
2022-11-24T07:49:04.714Z,82.47
2022-11-24T07:51:32.287Z,83.51
2022-11-24T07:54:01.697Z,83.97
2022-11-24T07:56:32.020Z,83.54
2022-11-24T07:59:00.748Z,83.68
2022-11-24T08:01:28.419Z,83.94
2022-11-24T08:04:00.541Z,83.21
2022-11-24T08:06:38.608Z,83.15
2022-11-24T08:09:08.410Z,81.48
2022-11-24T08:11:36.538Z,81.28
2022-11-24T08:14:04.071Z,81.32
2022-11-24T08:16:33.185Z,80.79
2022-11-24T08:19:00.820Z,80.42
2022-11-24T08:21:30.915Z,79.46
2022-11-24T08:23:58.633Z,78.83
2022-11-24T08:26:26.821Z,77.76
2022-11-24T08:28:56.982Z,74.77
2022-11-24T08:31:33.426Z,76.42
2022-11-24T08:34:03.155Z,76.25
2022-11-24T08:36:30.798Z,76.38
2022-11-24T08:39:00.298Z,76.72
2022-11-24T08:41:29.023Z,77.12
2022-11-24T08:43:57.163Z,76.99
2022-11-24T08:46:25.022Z,77.72
2022-11-24T08:48:54.583Z,80.26
2022-11-24T08:51:26.265Z,80.42
2022-11-24T08:53:58.892Z,80.92
2022-11-24T08:56:33.715Z,79.81
2022-11-24T08:59:01.846Z,80.18
2022-11-24T09:01:30.183Z,80.62
2022-11-24T09:03:58.413Z,80.45
2022-11-24T09:06:30.832Z,79.41
2022-11-24T09:08:59.327Z,78.79
2022-11-24T09:11:28.040Z,79.40
2022-11-24T09:13:56.286Z,79.93
2022-11-24T09:16:27.281Z,80.42
2022-11-24T09:19:01.672Z,80.22
2022-11-24T09:21:30.792Z,78.84
2022-11-24T09:23:58.582Z,78.30
2022-11-24T09:26:29.512Z,78.51
2022-11-24T09:28:58.596Z,78.28
2022-11-24T09:31:34.586Z,78.50
2022-11-24T09:34:03.869Z,78.06
2022-11-24T09:36:32.364Z,80.16
2022-11-24T09:39:00.274Z,78.07
2022-11-24T09:41:41.975Z,78.70
2022-11-24T09:44:38.191Z,75.86
2022-11-24T09:47:18.167Z,76.51
2022-11-24T09:49:51.648Z,76.49
2022-11-24T09:52:44.802Z,76.93
2022-11-24T09:55:43.570Z,76.67
2022-11-24T09:58:37.883Z,76.99
2022-11-24T10:01:19.216Z,77.93
2022-11-24T10:03:50.461Z,78.74
2022-11-24T10:06:36.252Z,79.41
2022-11-24T10:09:06.442Z,78.69
2022-11-24T10:11:46.604Z,78.12
2022-11-24T10:14:39.169Z,77.82
2022-11-24T10:17:24.962Z,77.60
2022-11-24T10:20:04.483Z,77.94
2022-11-24T10:22:53.596Z,77.48
2022-11-24T10:25:27.229Z,77.86
2022-11-24T10:28:09.540Z,77.85
2022-11-24T10:30:38.014Z,78.13
2022-11-24T10:33:24.239Z,78.31
2022-11-24T10:36:01.666Z,78.41
2022-11-24T10:38:38.318Z,78.06
2022-11-24T10:41:08.909Z,78.17
2022-11-24T10:43:36.442Z,77.73
2022-11-24T10:46:20.278Z,78.13
2022-11-24T10:49:20.323Z,78.32
2022-11-24T10:52:01.596Z,78.32
2022-11-24T10:54:29.795Z,78.52
2022-11-24T10:56:57.457Z,78.26
2022-11-24T10:59:34.251Z,78.14
2022-11-24T11:02:02.629Z,77.76
2022-11-24T11:04:35.953Z,77.36
2022-11-24T11:07:21.988Z,77.53
2022-11-24T11:09:50.574Z,77.30
2022-11-24T11:12:45.716Z,77.39
2022-11-24T11:15:29.835Z,78.10
2022-11-24T11:18:00.303Z,78.26
2022-11-24T11:20:33.595Z,78.55
2022-11-24T11:23:14.327Z,78.46
2022-11-24T11:25:45.388Z,78.66
2022-11-24T11:28:29.422Z,78.57
2022-11-24T11:31:17.772Z,78.13
2022-11-24T11:34:35.156Z,78.27
2022-11-24T11:37:04.691Z,78.52
2022-11-24T11:39:32.181Z,78.55
2022-11-24T11:42:08.003Z,78.17
2022-11-24T11:44:38.391Z,78.05
2022-11-24T11:47:20.270Z,78.08
2022-11-24T11:49:49.498Z,78.14
2022-11-24T11:52:43.481Z,78.30
2022-11-24T11:55:29.831Z,78.59
2022-11-24T11:58:14.602Z,78.68
2022-11-24T12:00:54.281Z,78.52
2022-11-24T12:03:30.770Z,78.90
2022-11-24T12:06:24.789Z,79.12
2022-11-24T12:09:20.921Z,79.34
2022-11-24T12:12:01.013Z,79.79
2022-11-24T12:14:51.598Z,79.67
2022-11-24T12:17:37.794Z,79.02
2022-11-24T12:20:15.534Z,79.60
2022-11-24T12:22:53.433Z,80.24
2022-11-24T12:25:29.257Z,80.37
2022-11-24T12:28:03.778Z,80.85
2022-11-24T12:30:54.542Z,81.18
2022-11-24T12:33:46.200Z,81.39
2022-11-24T12:36:47.186Z,82.02
2022-11-24T12:39:52.381Z,81.79
2022-11-24T12:42:37.471Z,81.97
2022-11-24T12:45:13.107Z,81.77
2022-11-24T12:48:18.731Z,81.79
2022-11-24T12:50:47.079Z,80.80
2022-11-24T12:53:31.949Z,80.59
2022-11-24T12:56:10.393Z,80.10
2022-11-24T12:58:50.308Z,78.53
2022-11-24T13:01:36.760Z,76.80
2022-11-24T13:04:16.475Z,77.58
2022-11-24T13:06:59.224Z,78.61
2022-11-24T13:09:26.771Z,77.12
2022-11-24T13:12:09.822Z,77.99
2022-11-24T13:14:40.042Z,78.44
2022-11-24T13:17:47.575Z,79.36
2022-11-24T13:20:21.607Z,80.76
2022-11-24T13:23:03.742Z,81.16
2022-11-24T13:25:43.056Z,81.11
2022-11-24T13:29:01.873Z,81.73
2022-11-24T13:31:32.262Z,82.04
2022-11-24T13:33:59.906Z,82.09
2022-11-24T13:36:28.719Z,82.11
2022-11-24T13:38:56.353Z,82.46
2022-11-24T13:41:35.246Z,82.83
2022-11-24T13:44:14.725Z,82.65
2022-11-24T13:47:03.281Z,82.44
2022-11-24T13:49:43.692Z,82.46
2022-11-24T13:52:48.455Z,82.58
2022-11-24T13:55:15.999Z,82.69
2022-11-24T13:57:47.766Z,83.14
2022-11-24T14:00:30.844Z,82.80
2022-11-24T14:03:21.680Z,83.08
2022-11-24T14:05:53.327Z,83.06
2022-11-24T14:08:26.813Z,82.98
2022-11-24T14:11:00.860Z,83.34
2022-11-24T14:13:30.972Z,83.21
2022-11-24T14:16:04.442Z,83.43
2022-11-24T14:18:33.123Z,83.61
2022-11-24T14:21:20.832Z,83.50
2022-11-24T14:23:55.288Z,83.78
2022-11-24T14:26:26.456Z,84.00
2022-11-24T14:28:55.348Z,84.18
2022-11-24T14:31:27.784Z,84.35
2022-11-24T14:34:13.537Z,84.75
2022-11-24T14:36:43.962Z,84.58
2022-11-24T14:39:20.450Z,84.82
2022-11-24T14:42:15.859Z,85.09
2022-11-24T14:44:49.573Z,85.45
2022-11-24T14:47:33.669Z,85.50
2022-11-24T14:50:12.505Z,85.58
2022-11-24T14:52:47.092Z,85.71
2022-11-24T14:55:30.974Z,86.07
2022-11-24T14:58:00.199Z,86.13
2022-11-24T15:00:34.740Z,86.28
2022-11-24T15:03:02.650Z,86.63
2022-11-24T15:05:52.025Z,86.34
2022-11-24T15:08:19.741Z,86.26
2022-11-24T15:10:47.670Z,86.43
2022-11-24T15:13:26.071Z,86.01
2022-11-24T15:16:04.508Z,86.15
2022-11-24T15:18:48.882Z,86.69
2022-11-24T15:21:19.439Z,86.59
2022-11-24T15:24:18.741Z,86.79
2022-11-24T15:26:46.920Z,86.95
2022-11-24T15:29:14.609Z,86.65
2022-11-24T15:31:49.227Z,86.95
2022-11-24T15:34:20.822Z,87.20
2022-11-24T15:36:48.358Z,87.88
2022-11-24T15:39:18.040Z,87.84
2022-11-24T15:41:47.047Z,88.24
2022-11-24T15:44:14.559Z,88.27
2022-11-24T15:46:42.325Z,88.60
2022-11-24T15:49:09.887Z,88.48
2022-11-24T15:51:43.316Z,88.52
2022-11-24T15:54:15.767Z,88.71
2022-11-24T15:56:44.891Z,89.35
2022-11-24T15:59:20.224Z,89.33
2022-11-24T16:01:50.724Z,89.79
2022-11-24T16:04:18.494Z,89.73
2022-11-24T16:06:46.039Z,89.65
2022-11-24T16:09:16.823Z,89.37
2022-11-24T16:11:44.393Z,89.79
2022-11-24T16:14:12.024Z,89.73
2022-11-24T16:16:40.785Z,89.50
2022-11-24T16:19:10.348Z,90.26
2022-11-24T16:21:37.901Z,90.09
2022-11-24T16:24:05.572Z,90.12
2022-11-24T16:26:35.298Z,90.26
2022-11-24T16:29:02.789Z,90.25
2022-11-24T16:31:30.472Z,90.20
2022-11-24T16:33:58.378Z,90.34
2022-11-24T16:36:26.116Z,90.33
2022-11-24T16:38:53.624Z,90.12
2022-11-24T16:41:21.761Z,90.28
2022-11-24T16:43:51.702Z,90.31
2022-11-24T16:46:21.106Z,90.16
2022-11-24T16:48:52.039Z,90.37
2022-11-24T16:51:21.787Z,90.65
2022-11-24T16:53:49.822Z,90.95
2022-11-24T16:56:20.730Z,90.84
2022-11-24T16:58:48.320Z,90.85
2022-11-24T17:01:16.032Z,90.66
2022-11-24T17:03:43.770Z,90.94
2022-11-24T17:06:15.813Z,91.02
2022-11-24T17:08:44.808Z,90.94
2022-11-24T17:11:18.115Z,91.05
2022-11-24T17:13:47.287Z,90.84
2022-11-24T17:16:17.058Z,91.02
2022-11-24T17:18:46.369Z,91.30
2022-11-24T17:21:19.292Z,91.47
2022-11-24T17:23:47.752Z,91.42
2022-11-24T17:26:19.425Z,91.60
2022-11-24T17:28:47.047Z,91.72
2022-11-24T17:31:25.009Z,91.73
2022-11-24T17:33:55.186Z,91.41
2022-11-24T17:36:23.331Z,90.98
2022-11-24T17:38:51.005Z,90.74
2022-11-24T17:41:19.732Z,90.55
2022-11-24T17:43:51.630Z,90.72
2022-11-24T17:46:20.335Z,90.82
2022-11-24T17:48:48.257Z,90.85
2022-11-24T17:51:18.104Z,90.92
2022-11-24T17:53:50.363Z,90.66
2022-11-24T17:56:23.664Z,90.85
2022-11-24T17:58:55.978Z,90.59
2022-11-24T18:01:28.661Z,90.37
2022-11-24T18:03:56.834Z,90.36
2022-11-24T18:06:25.560Z,89.92
2022-11-24T18:08:54.732Z,89.74
2022-11-24T18:11:32.435Z,89.59
2022-11-24T18:14:03.346Z,89.23
2022-11-24T18:16:35.664Z,88.55
2022-11-24T18:19:10.964Z,88.43
2022-11-24T18:21:43.765Z,87.64
2022-11-24T18:24:12.446Z,87.50
2022-11-24T18:26:41.601Z,87.65
2022-11-24T18:29:09.588Z,87.56
2022-11-24T18:31:38.239Z,87.44
2022-11-24T18:34:07.104Z,87.40
2022-11-24T18:36:39.912Z,87.52
2022-11-24T18:39:09.147Z,87.27
2022-11-24T18:41:37.127Z,87.12
2022-11-24T18:44:07.977Z,86.91
2022-11-24T18:46:35.895Z,86.79
2022-11-24T18:49:05.067Z,86.73
2022-11-24T18:51:32.628Z,86.73
2022-11-24T18:54:02.477Z,86.29
2022-11-24T18:56:30.440Z,86.27
2022-11-24T18:59:02.983Z,86.03
2022-11-24T19:01:31.160Z,85.14
2022-11-24T19:04:02.890Z,85.68
2022-11-24T19:06:35.739Z,85.70
2022-11-24T19:09:15.488Z,85.81
2022-11-24T19:11:51.078Z,86.40
2022-11-24T19:14:19.819Z,86.48
2022-11-24T19:16:50.249Z,86.69
2022-11-24T19:19:18.065Z,86.61
2022-11-24T19:21:47.984Z,86.52
2022-11-24T19:24:15.519Z,86.52
2022-11-24T19:26:43.248Z,86.73
2022-11-24T19:29:13.363Z,86.66
2022-11-24T19:31:41.168Z,87.22
2022-11-24T19:34:08.981Z,87.36
2022-11-24T19:36:36.763Z,87.43
2022-11-24T19:39:05.257Z,87.77
2022-11-24T19:41:34.234Z,87.93
2022-11-24T19:44:01.800Z,88.01
2022-11-24T19:46:30.401Z,88.24
2022-11-24T19:49:03.229Z,88.17
2022-11-24T19:51:34.765Z,88.30
2022-11-24T19:54:06.643Z,88.34
2022-11-24T19:56:36.962Z,88.17
2022-11-24T19:59:06.890Z,88.17
2022-11-24T20:01:40.219Z,88.14
2022-11-24T20:04:15.599Z,87.79
2022-11-24T20:06:46.102Z,87.80
2022-11-24T20:09:16.035Z,87.46
2022-11-24T20:11:43.742Z,87.39
2022-11-24T20:14:16.042Z,87.33
2022-11-24T20:16:45.543Z,87.19
2022-11-24T20:19:15.882Z,87.52
2022-11-24T20:21:46.397Z,87.30
2022-11-24T20:24:20.071Z,87.55
2022-11-24T20:26:53.260Z,87.32
2022-11-24T20:29:23.765Z,87.17
2022-11-24T20:31:56.786Z,87.50
2022-11-24T20:34:26.200Z,87.55
2022-11-24T20:36:55.845Z,87.58
2022-11-24T20:39:27.014Z,87.67
2022-11-24T20:41:57.678Z,87.84
2022-11-24T20:44:28.101Z,87.77
2022-11-24T20:46:58.161Z,87.86
2022-11-24T20:49:26.105Z,87.91
2022-11-24T20:51:54.906Z,87.54
2022-11-24T20:54:25.575Z,87.70
2022-11-24T20:56:55.716Z,87.96
2022-11-24T20:59:27.000Z,87.86
2022-11-24T21:01:56.176Z,87.71
2022-11-24T21:04:26.507Z,87.38
2022-11-24T21:06:54.886Z,87.31
2022-11-24T21:09:22.543Z,86.94
2022-11-24T21:11:50.252Z,86.94
2022-11-24T21:14:20.243Z,87.28
2022-11-24T21:16:47.811Z,87.37
2022-11-24T21:19:18.181Z,87.33
2022-11-24T21:21:47.485Z,86.90
2022-11-24T21:24:19.496Z,87.13
2022-11-24T21:26:51.253Z,87.24
2022-11-24T21:29:23.502Z,87.13
2022-11-24T21:31:56.049Z,87.47
2022-11-24T21:34:23.643Z,87.63
2022-11-24T21:36:52.680Z,87.55
2022-11-24T21:39:20.607Z,87.55
2022-11-24T21:41:48.374Z,87.54
2022-11-24T21:44:18.400Z,87.97
2022-11-24T21:46:54.333Z,88.02
2022-11-24T21:49:23.474Z,88.01
2022-11-24T21:51:55.463Z,88.15
2022-11-24T21:54:29.495Z,88.29
2022-11-24T21:56:57.032Z,88.43
2022-11-24T21:59:24.552Z,88.40
2022-11-24T22:01:55.825Z,89.03
2022-11-24T22:04:23.810Z,89.10
2022-11-24T22:06:54.323Z,89.48
2022-11-24T22:09:24.610Z,89.96
2022-11-24T22:11:53.301Z,90.08
2022-11-24T22:14:20.843Z,89.90
2022-11-24T22:16:48.427Z,89.76
2022-11-24T22:19:18.559Z,89.77
2022-11-24T22:21:46.260Z,89.79
2022-11-24T22:24:13.976Z,89.93
2022-11-24T22:26:42.762Z,90.58
2022-11-24T22:29:10.416Z,90.96
2022-11-24T22:31:40.557Z,91.21
2022-11-24T22:34:10.642Z,91.51
2022-11-24T22:36:41.779Z,91.35
2022-11-24T22:39:13.133Z,91.41
2022-11-24T22:41:40.648Z,91.53
2022-11-24T22:44:08.262Z,91.39
2022-11-24T22:46:35.768Z,91.56
2022-11-24T22:49:06.935Z,91.08
2022-11-24T22:51:35.745Z,90.94
2022-11-24T22:54:04.980Z,90.74
2022-11-24T22:56:35.083Z,90.71
2022-11-24T22:59:06.611Z,90.97
2022-11-24T23:01:34.632Z,90.81
2022-11-24T23:04:04.967Z,90.99
2022-11-24T23:06:34.028Z,91.12
2022-11-24T23:09:02.892Z,91.57
2022-11-24T23:11:38.573Z,91.67
2022-11-24T23:14:15.683Z,91.85
2022-11-24T23:16:43.699Z,92.22
2022-11-24T23:19:15.042Z,93.05
2022-11-24T23:21:42.620Z,93.61
2022-11-24T23:24:16.046Z,94.10
2022-11-24T23:26:43.665Z,94.89
2022-11-24T23:29:13.666Z,96.10
2022-11-24T23:31:43.545Z,96.51
2022-11-24T23:34:11.231Z,97.30
2022-11-24T23:36:38.804Z,97.66
2022-11-24T23:39:14.372Z,98.17
2022-11-24T23:41:42.348Z,98.91
2022-11-24T23:44:09.859Z,99.08
2022-11-24T23:46:37.453Z,99.75
2022-11-24T23:49:05.039Z,100.00
2022-11-24T23:51:34.077Z,100.00
2022-11-24T23:54:04.435Z,100.00
2022-11-24T23:56:33.622Z,100.00
2022-11-24T23:59:05.075Z,100.00
